Time;durP1;ratioP1;P1;durP2;ratioP2;P2;SDS_P1;SDS_P2;PMS_P1;PMS_P2;Temp;Humidity;BMP_temperature;BMP_pressure;BME280_temperature;BME280_humidity;BME280_pressure;Samples;Min_cycle;Max_cycle;Signal;HPM_P1;HPM_P2
2022/02/06 04:33:25;;;;;;;8.40;2.80;;;;;;;9.36;46.46;99052.13;6988541;23;20480;-88
2022/02/06 04:36:53;;;;;;;4.27;2.20;;;;;;;9.16;46.78;99048.41;6894574;28;20204;-87
2022/02/06 04:40:24;;;;;;;2.50;2.30;;;;;;;9.34;45.94;99030.78;6892863;28;20227;-87
2022/02/06 04:44:10;;;;;;;2.60;1.97;;;;;;;9.39;46.27;99046.38;6894609;28;20192;-86
2022/02/06 04:48:09;;;;;;;5.40;3.00;;;;;;;9.02;47.15;99056.50;6893459;28;20196;-90
2022/02/06 04:52:17;;;;;;;5.10;2.30;;;;;;;9.31;46.94;99052.69;6891285;28;20275;-89
2022/02/06 04:56:05;;;;;;;7.37;3.50;;;;;;;9.34;46.15;99056.88;6891101;28;20218;-90
2022/02/06 05:21:46;;;;;;;3.73;2.27;;;;;;;9.59;45.92;98985.47;6890660;28;20795;-91
2022/02/06 05:25:48;;;;;;;5.30;2.33;;;;;;;9.35;46.09;98975.97;6890221;28;20207;-90
2022/02/06 05:29:20;;;;;;;4.80;2.77;;;;;;;9.85;45.66;98993.75;6887747;28;20299;-90
2022/02/06 05:32:57;;;;;;;4.33;3.03;;;;;;;9.44;46.35;99006.22;6887257;28;20359;-89
2022/02/06 05:36:19;;;;;;;6.77;2.43;;;;;;;9.30;46.27;98973.00;6892914;28;20193;-88
2022/02/06 05:39:41;;;;;;;3.53;2.30;;;;;;;9.17;46.79;98996.25;6894262;28;20228;-88
2022/02/06 05:43:04;;;;;;;3.17;2.20;;;;;;;8.83;47.34;99006.84;6905120;28;20213;-84
2022/02/06 05:46:25;;;;;;;6.37;2.60;;;;;;;8.93;47.77;98993.09;6882800;28;20236;-88
2022/02/06 05:49:47;;;;;;;2.77;2.37;;;;;;;8.79;47.64;99005.53;6872300;28;20223;-85
2022/02/06 05:53:09;;;;;;;5.23;2.20;;;;;;;8.83;47.43;99028.34;6873771;28;20733;-86
2022/02/06 05:56:30;;;;;;;6.67;2.43;;;;;;;9.19;46.22;98999.56;6871436;28;20213;-85
2022/02/06 05:59:53;;;;;;;7.10;2.33;;;;;;;9.54;46.04;99017.50;6896160;28;20319;-86
2022/02/06 06:03:15;;;;;;;2.40;2.20;;;;;;;9.30;46.66;99031.34;6900204;28;20232;-88
2022/02/06 06:06:36;;;;;;;4.37;2.63;;;;;;;9.70;45.89;99023.44;6873918;28;20200;-85
2022/02/06 06:09:58;;;;;;;5.63;3.20;;;;;;;9.07;47.14;99016.44;6871331;28;20576;-88
2022/02/06 06:13:19;;;;;;;3.57;2.30;;;;;;;9.70;46.08;99001.91;6886452;28;20224;-89
2022/02/06 06:16:42;;;;;;;6.03;2.53;;;;;;;9.65;46.65;98990.91;6887450;28;20211;-89
2022/02/06 06:20:09;;;;;;;5.57;2.47;;;;;;;9.85;45.79;98981.13;6876722;28;20303;-89
2022/02/06 06:23:30;;;;;;;8.50;2.80;;;;;;;9.60;46.28;98995.19;6892328;28;20212;-91
2022/02/06 06:26:52;;;;;;;3.83;2.27;;;;;;;9.50;46.42;98963.25;6884458;28;20227;-89
2022/02/06 06:30:14;;;;;;;3.83;2.70;;;;;;;8.85;47.07;98932.19;6894355;28;20821;-89
2022/02/06 06:33:38;;;;;;;3.73;2.43;;;;;;;8.75;47.54;98918.25;6882984;28;20221;-89
2022/02/06 06:37:00;;;;;;;7.90;2.40;;;;;;;9.09;47.52;98982.94;6883571;28;20566;-84
2022/02/06 06:40:23;;;;;;;4.60;2.10;;;;;;;9.29;47.23;98959.75;6876975;28;20228;-90
2022/02/06 06:43:45;;;;;;;4.87;2.17;;;;;;;9.52;46.91;98980.00;6880814;28;20208;-85
2022/02/06 06:47:09;;;;;;;5.50;2.07;;;;;;;9.54;46.75;98959.16;6893734;28;20201;-90
2022/02/06 06:50:33;;;;;;;5.23;2.47;;;;;;;8.95;46.65;98851.25;6911725;28;20217;-92
2022/02/06 06:53:55;;;;;;;3.30;2.10;;;;;;;8.70;47.95;98901.00;6921370;28;20194;-92
2022/02/06 06:57:21;;;;;;;5.43;2.23;;;;;;;8.62;47.81;98848.25;6904681;28;20255;-90
2022/02/06 07:00:55;;;;;;;5.63;2.30;;;;;;;8.78;48.47;98947.44;6895734;28;20306;-89
2022/02/06 07:04:16;;;;;;;3.73;2.30;;;;;;;8.78;47.08;98836.41;6893085;28;20204;-87
2022/02/06 07:07:42;;;;;;;5.03;3.20;;;;;;;9.40;46.21;98903.53;6896753;28;20215;-84
2022/02/06 07:11:04;;;;;;;6.00;2.27;;;;;;;9.01;46.78;98863.91;6886091;28;20224;-89
2022/02/06 07:14:26;;;;;;;6.00;2.30;;;;;;;9.64;46.26;98910.34;6875807;28;20224;-89
2022/02/06 07:17:48;;;;;;;4.63;2.17;;;;;;;9.24;47.07;98930.75;6869963;28;20201;-86
2022/02/06 07:21:09;;;;;;;7.73;2.10;;;;;;;9.65;46.38;98936.22;6867402;28;20237;-88
2022/02/06 07:24:36;;;;;;;7.13;3.20;;;;;;;9.35;47.63;98908.69;6868732;28;20687;-86
2022/02/06 07:27:59;;;;;;;7.27;2.93;;;;;;;10.31;45.23;98881.72;6871963;28;20692;-89
2022/02/06 07:31:22;;;;;;;2.37;2.20;;;;;;;9.62;46.58;98847.81;6874803;28;20304;-87
2022/02/06 07:34:43;;;;;;;6.53;3.57;;;;;;;10.05;46.84;98897.78;6882564;28;20216;-86
2022/02/06 07:38:06;;;;;;;7.53;3.07;;;;;;;10.40;46.14;98891.31;6893112;28;20556;-88
2022/02/06 07:41:29;;;;;;;3.13;2.20;;;;;;;10.21;44.57;98800.47;6887302;28;20236;-84
2022/02/06 07:44:51;;;;;;;3.77;2.30;;;;;;;10.64;44.05;98821.47;6871589;28;20213;-87
2022/02/06 07:48:13;;;;;;;5.43;2.50;;;;;;;10.92;44.02;98870.69;6893437;28;20207;-89
2022/02/06 07:51:35;;;;;;;3.87;2.40;;;;;;;10.38;45.89;98861.03;6900197;28;20220;-88
2022/02/06 07:54:57;;;;;;;4.60;2.67;;;;;;;10.63;45.39;98835.19;6899337;28;20211;-85
2022/02/06 07:58:20;;;;;;;3.47;2.00;;;;;;;10.31;45.03;98846.69;6896880;28;20202;-85
2022/02/06 08:01:43;;;;;;;2.83;2.00;;;;;;;10.38;44.47;98764.84;6882642;28;20251;-89
2022/02/06 08:05:05;;;;;;;5.57;2.40;;;;;;;9.95;45.44;98829.94;6871048;28;20201;-86
2022/02/06 08:08:27;;;;;;;3.70;2.40;;;;;;;10.23;45.14;98820.78;6876347;28;20209;-86
2022/02/06 08:11:50;;;;;;;5.57;2.43;;;;;;;10.18;44.95;98796.31;6877267;28;20273;-88
2022/02/06 08:15:13;;;;;;;4.10;2.17;;;;;;;10.05;45.83;98777.38;6872890;28;20209;-89
2022/02/06 08:18:39;;;;;;;8.40;2.70;;;;;;;10.20;45.76;98812.25;6873608;28;20212;-88
2022/02/06 08:22:01;;;;;;;5.47;2.63;;;;;;;10.45;44.92;98770.25;6878353;28;20272;-88
2022/02/06 08:25:24;;;;;;;3.37;2.73;;;;;;;9.75;45.55;98700.63;6872452;28;20316;-86
2022/02/06 08:28:46;;;;;;;8.00;2.50;;;;;;;9.20;47.19;98751.06;6882260;28;20593;-88
2022/02/06 08:32:09;;;;;;;6.23;2.27;;;;;;;9.87;46.36;98789.75;6898083;28;20314;-86
2022/02/06 08:35:31;;;;;;;4.47;2.10;;;;;;;10.03;46.17;98789.41;6898060;28;20197;-86
2022/02/06 08:38:53;;;;;;;4.37;2.63;;;;;;;10.10;46.03;98787.56;6879006;28;20209;-87
2022/02/06 08:42:15;;;;;;;7.53;2.77;;;;;;;10.16;46.08;98768.72;6884996;28;20231;-85
2022/02/06 08:45:38;;;;;;;3.47;2.50;;;;;;;9.99;45.67;98751.22;6893642;28;20638;-87
2022/02/06 08:49:01;;;;;;;3.50;2.10;;;;;;;9.88;46.44;98780.63;6871539;28;20572;-88
2022/02/06 08:52:23;;;;;;;7.40;2.33;;;;;;;10.48;45.57;98778.75;6870611;28;20631;-88
2022/02/06 08:55:48;;;;;;;5.13;2.40;;;;;;;10.12;45.96;98762.09;6871416;28;20244;-86
2022/02/06 08:59:11;;;;;;;6.40;2.20;;;;;;;9.97;45.74;98690.53;6872163;28;20200;-87
2022/02/06 09:02:32;;;;;;;4.63;2.33;;;;;;;10.00;45.85;98758.31;6871459;28;20233;-88
2022/02/06 09:05:55;;;;;;;4.23;2.23;;;;;;;10.77;44.68;98788.31;6869194;28;20304;-89
2022/02/06 09:09:17;;;;;;;3.47;2.00;;;;;;;10.75;44.44;98758.84;6869101;28;20217;-88
2022/02/06 09:12:42;;;;;;;2.17;1.83;;;;;;;10.55;44.74;98774.19;6869128;28;20221;-85
2022/02/06 09:16:04;;;;;;;6.97;2.10;;;;;;;9.96;45.30;98696.94;6869103;28;20239;-88
2022/02/06 09:19:28;;;;;;;6.07;2.10;;;;;;;10.74;44.83;98761.78;6884860;28;20200;-88
2022/02/06 09:22:51;;;;;;;9.30;2.20;;;;;;;11.17;43.90;98774.59;6881710;28;20245;-88
2022/02/06 09:26:13;;;;;;;4.23;2.40;;;;;;;10.34;45.65;98760.06;6870000;28;20208;-88
2022/02/06 09:29:34;;;;;;;2.40;2.20;;;;;;;10.62;45.21;98772.34;6873601;28;20223;-87
2022/02/06 09:36:17;;;;;;;4.57;2.53;;;;;;;10.86;44.21;98700.78;6875298;28;20232;-87
2022/02/06 09:39:41;;;;;;;5.33;2.20;;;;;;;10.46;44.48;98680.28;6871289;28;20205;-87
2022/02/06 09:43:03;;;;;;;6.53;2.80;;;;;;;10.37;45.73;98720.06;6868156;28;20236;-90
2022/02/06 09:46:25;;;;;;;1.73;1.63;;;;;;;10.51;45.30;98694.78;6881583;28;20203;-90
2022/02/06 09:49:48;;;;;;;6.07;2.13;;;;;;;10.64;44.74;98685.88;6866949;28;20205;-90
2022/02/06 09:53:10;;;;;;;3.87;2.23;;;;;;;10.66;45.11;98721.53;6886479;28;20221;-90
2022/02/06 09:56:36;;;;;;;3.27;2.13;;;;;;;10.07;45.56;98629.88;6888799;28;20200;-89
2022/02/06 09:59:59;;;;;;;4.30;2.73;;;;;;;10.33;45.97;98674.88;6898254;28;20220;-88
2022/02/06 10:03:21;;;;;;;8.10;2.67;;;;;;;11.02;45.03;98700.31;6882791;28;20225;-88
2022/02/06 10:06:51;;;;;;;3.53;2.00;;;;;;;11.13;44.52;98654.66;6898329;28;20208;-88
2022/02/06 10:10:14;;;;;;;5.63;2.70;;;;;;;10.45;45.72;98603.16;6900039;28;20208;-87
2022/02/06 10:13:39;;;;;;;6.10;3.97;;;;;;;11.17;44.92;98682.03;6903079;28;20204;-88
2022/02/06 10:17:00;;;;;;;5.00;2.80;;;;;;;10.48;44.80;98555.03;6901785;28;20203;-89
2022/02/06 10:20:29;;;;;;;5.80;3.63;;;;;;;10.99;44.75;98622.53;6880468;28;20236;-88
2022/02/06 10:24:00;;;;;;;4.80;2.20;;;;;;;11.13;44.88;98651.97;6890402;28;20862;-86
2022/02/06 10:27:56;;;;;;;12.23;2.00;;;;;;;11.03;45.29;98638.06;6900193;28;20201;-88
2022/02/06 10:31:25;;;;;;;8.83;2.50;;;;;;;10.84;44.91;98576.09;6876287;28;20233;-91
2022/02/06 10:34:47;;;;;;;3.97;2.07;;;;;;;11.30;44.53;98618.06;6885856;28;20205;-89
2022/02/06 10:38:16;;;;;;;2.70;2.00;;;;;;;11.21;44.72;98594.25;6878148;28;20210;-89
2022/02/06 10:41:45;;;;;;;4.47;2.20;;;;;;;11.09;44.82;98556.28;6903084;28;20239;-87
2022/02/06 10:45:15;;;;;;;4.53;2.70;;;;;;;11.57;43.99;98599.88;6905454;28;20219;-86
2022/02/06 10:48:46;;;;;;;6.17;2.50;;;;;;;11.31;44.76;98594.59;6905330;28;20203;-86
2022/02/06 10:52:09;;;;;;;3.77;2.20;;;;;;;11.29;45.09;98584.03;6905646;28;20224;-89
2022/02/06 10:55:31;;;;;;;3.97;1.97;;;;;;;11.16;45.53;98565.19;6882504;28;20202;-86
2022/02/06 10:59:00;;;;;;;2.83;1.80;;;;;;;11.62;44.77;98575.78;6884898;28;20663;-86
2022/02/06 11:02:23;;;;;;;2.63;1.90;;;;;;;12.12;43.96;98569.38;6884607;28;20224;-87
2022/02/06 11:05:50;;;;;;;4.10;2.13;;;;;;;11.46;45.06;98551.94;6899139;28;20571;-89
2022/02/06 11:09:25;;;;;;;5.13;2.07;;;;;;;11.07;46.59;98560.25;6896264;28;20287;-89
2022/02/06 11:12:51;;;;;;;3.50;2.10;;;;;;;11.37;45.40;98523.53;6898833;28;20247;-87
2022/02/06 11:16:19;;;;;;;3.67;2.00;;;;;;;11.02;46.59;98511.50;6882762;28;20732;-87
2022/02/06 11:19:57;;;;;;;3.57;2.00;;;;;;;11.40;45.43;98505.03;6877503;28;20213;-87
2022/02/06 11:23:20;;;;;;;2.47;2.27;;;;;;;10.94;46.74;98507.19;6876658;28;20315;-89
2022/02/06 11:26:42;;;;;;;4.27;2.00;;;;;;;11.45;45.81;98480.94;6872824;28;20212;-86
2022/02/06 11:30:05;;;;;;;2.07;1.83;;;;;;;12.02;44.66;98480.72;6876898;28;20204;-90
2022/02/06 11:33:27;;;;;;;3.10;1.83;;;;;;;12.07;44.53;98466.53;6891074;28;20213;-87
2022/02/06 11:44:52;;;;;;;4.40;2.20;;;;;;;11.86;44.88;98410.22;6785675;29;20227;-90
2022/02/06 11:48:18;;;;;;;4.20;1.90;;;;;;;11.48;45.58;98413.00;6810607;29;20216;-89
2022/02/06 11:51:50;;;;;;;4.30;2.13;;;;;;;11.55;45.33;98434.53;6815411;29;20231;-88
2022/02/06 11:55:36;;;;;;;2.43;1.80;;;;;;;11.51;45.41;98438.75;6792125;29;20216;-90
2022/02/06 11:59:12;;;;;;;4.20;1.90;;;;;;;11.67;45.56;98406.66;6806091;29;20229;-86
2022/02/06 12:02:34;;;;;;;3.87;2.67;;;;;;;12.00;44.94;98409.03;6824966;29;20245;-87
2022/02/06 12:06:02;;;;;;;2.00;1.80;;;;;;;11.91;45.42;98403.09;6822772;29;20590;-87
2022/02/06 12:09:53;;;;;;;3.30;1.83;;;;;;;12.12;45.29;98416.19;6819636;29;20212;-89
2022/02/06 12:13:46;;;;;;;3.20;1.80;;;;;;;11.87;45.04;98395.66;6812205;29;20227;-88
2022/02/06 12:17:45;;;;;;;2.60;1.70;;;;;;;12.26;44.53;98379.84;6812093;29;20214;-87
2022/02/06 12:21:20;;;;;;;2.80;1.90;;;;;;;12.16;44.68;98382.22;6859491;28;20239;-85
2022/02/06 12:24:42;;;;;;;1.80;1.70;;;;;;;11.55;46.09;98367.03;6894099;28;20306;-90
2022/02/06 12:28:27;;;;;;;2.40;1.90;;;;;;;11.85;45.30;98370.72;6893126;28;20204;-89
2022/02/06 12:31:55;;;;;;;2.00;1.80;;;;;;;11.14;46.86;98343.31;6892287;28;20260;-89
2022/02/06 12:39:04;;;;;;;2.13;1.80;;;;;;;11.57;46.45;98340.66;6893071;28;20605;-90
2022/02/06 12:46:45;;;;;;;2.60;1.97;;;;;;;11.39;46.60;98308.25;6838048;28;20210;-87
2022/02/06 12:58:59;;;;;;;2.33;1.70;;;;;;;10.91;45.84;98188.53;6864427;28;20281;-85
2022/02/06 13:03:15;;;;;;;1.80;1.70;;;;;;;10.29;46.79;98141.00;6864080;28;20324;-86
2022/02/06 13:07:11;;;;;;;2.03;1.83;;;;;;;11.90;45.38;98289.84;6807889;29;20269;-86
2022/02/06 13:19:48;;;;;;;1.63;1.53;;;;;;;10.93;45.86;98135.22;6920583;28;20188;-86
2022/02/06 13:23:31;;;;;;;2.97;2.13;;;;;;;10.73;46.95;98110.28;6956162;23;20261;-81
2022/02/06 13:27:06;;;;;;;3.90;1.90;;;;;;;11.23;46.18;98168.50;6960190;28;20241;-81
2022/02/06 13:30:46;;;;;;;1.90;1.80;;;;;;;10.91;46.99;98111.16;6981257;28;20202;-81
2022/02/06 13:34:22;;;;;;;1.87;1.60;;;;;;;10.76;47.18;98167.31;6926194;28;20227;-80
2022/02/06 13:37:57;;;;;;;1.83;1.70;;;;;;;10.99;47.77;98170.19;6932091;28;20205;-81
2022/02/06 13:41:23;;;;;;;2.73;1.73;;;;;;;11.29;47.17;98138.75;6927853;28;20236;-83
2022/02/06 13:45:02;;;;;;;6.83;1.70;;;;;;;10.62;47.89;98081.41;6926238;28;20655;-92
2022/02/06 13:48:26;;;;;;;1.60;1.50;;;;;;;10.67;49.05;98138.16;6926157;28;20240;-80
2022/02/06 13:51:50;;;;;;;3.53;2.40;;;;;;;10.79;48.99;98069.78;6925976;28;20218;-78
2022/02/06 13:55:16;;;;;;;3.23;2.93;;;;;;;10.83;48.47;98030.56;6925320;28;20207;-79
2022/02/06 13:58:38;;;;;;;2.40;2.20;;;;;;;11.39;48.21;98078.84;6925994;28;20223;-81
2022/02/06 14:02:06;;;;;;;1.43;1.43;;;;;;;11.84;48.16;98134.09;6945557;28;20227;-78
2022/02/06 14:05:29;;;;;;;2.07;1.97;;;;;;;10.64;49.19;97976.88;6952788;28;20223;-78
2022/02/06 14:08:58;;;;;;;1.33;1.33;;;;;;;10.18;51.08;98023.16;6942570;28;20250;-78
2022/02/06 14:12:22;;;;;;;3.60;2.10;;;;;;;11.03;51.61;98073.50;6942640;28;20215;-78
2022/02/06 14:15:44;;;;;;;1.50;1.40;;;;;;;9.85;51.77;97970.59;6938786;28;20219;-78
2022/02/06 14:19:10;;;;;;;6.83;4.67;;;;;;;10.67;53.32;98085.06;6925937;28;20620;-78
2022/02/06 14:22:33;;;;;;;2.40;2.20;;;;;;;10.64;53.15;98115.16;6926567;28;20716;-78
2022/02/06 14:26:10;;;;;;;2.30;2.10;;;;;;;10.03;54.14;98029.91;6941741;28;20223;-78
2022/02/06 14:29:34;;;;;;;4.77;3.33;;;;;;;10.15;54.32;98047.03;6951345;28;20562;-80
2022/02/06 14:33:01;;;;;;;2.90;2.43;;;;;;;10.12;53.69;98034.84;6927042;28;20604;-80
2022/02/06 14:36:25;;;;;;;3.13;2.20;;;;;;;9.83;55.24;97978.91;6925644;28;20204;-78
2022/02/06 14:40:02;;;;;;;2.73;1.63;;;;;;;10.18;54.71;98047.41;6923722;28;20208;-78
2022/02/06 14:43:37;;;;;;;2.40;2.20;;;;;;;9.95;55.10;97996.00;6924982;28;20693;-79
2022/02/06 14:47:00;;;;;;;1.40;1.40;;;;;;;10.47;54.11;98027.03;6925054;28;20215;-79
2022/02/06 14:50:27;;;;;;;2.63;2.43;;;;;;;10.21;54.53;97989.59;6927385;28;20199;-81
2022/02/06 14:53:55;;;;;;;1.30;1.30;;;;;;;10.21;55.17;98013.81;6932505;28;20210;-79
2022/02/06 14:57:18;;;;;;;1.30;1.30;;;;;;;10.13;56.18;98031.09;6907442;28;20215;-80
2022/02/06 15:00:42;;;;;;;1.90;1.80;;;;;;;10.00;56.66;98027.66;6920367;28;20235;-80
2022/02/06 15:04:06;;;;;;;1.30;1.20;;;;;;;10.29;55.72;97962.34;6914759;28;20238;-81
2022/02/06 15:07:29;;;;;;;1.37;1.37;;;;;;;10.50;54.96;97933.06;6948868;28;20329;-80
2022/02/06 15:10:52;;;;;;;1.50;1.40;;;;;;;9.61;56.63;97929.22;6944184;28;20206;-80
2022/02/06 15:14:14;;;;;;;2.10;2.00;;;;;;;9.63;57.32;97945.94;6953663;28;20242;-84
2022/02/06 15:17:35;;;;;;;5.40;3.77;;;;;;;9.17;58.53;97937.41;6946922;28;20206;-81
2022/02/06 15:20:58;;;;;;;13.83;9.30;;;;;;;10.28;58.23;98017.28;6950860;28;20222;-81
2022/02/06 15:24:20;;;;;;;4.97;4.47;;;;;;;9.98;57.58;98000.13;6955231;28;20225;-82
2022/02/06 15:27:42;;;;;;;1.97;1.80;;;;;;;9.82;59.35;97952.22;6943366;28;20251;-79
2022/02/06 15:31:04;;;;;;;1.90;1.80;;;;;;;9.35;59.71;97869.41;6943824;28;20210;-79
2022/02/06 15:34:29;;;;;;;1.37;1.37;;;;;;;9.94;58.54;97961.22;6957225;28;20208;-78
2022/02/06 15:38:01;;;;;;;1.30;1.20;;;;;;;8.98;61.16;97904.44;6952593;28;20661;-94
2022/02/06 15:41:26;;;;;;;1.60;1.50;;;;;;;9.52;59.70;97957.41;6919058;28;20687;-80
2022/02/06 15:44:49;;;;;;;1.47;1.20;;;;;;;9.16;60.02;97906.19;6928575;28;20208;-79
2022/02/06 15:48:11;;;;;;;1.33;1.33;;;;;;;8.91;59.61;97815.78;6944312;28;20207;-80
2022/02/06 15:51:33;;;;;;;1.40;1.40;;;;;;;9.30;60.38;97917.66;6980289;28;20564;-80
2022/02/06 15:54:56;;;;;;;1.47;1.40;;;;;;;10.06;58.48;97973.78;6956359;28;20210;-79
2022/02/06 15:58:19;;;;;;;1.60;1.60;;;;;;;9.99;59.05;97967.56;6958195;28;20582;-82
2022/02/06 16:01:40;;;;;;;1.37;1.37;;;;;;;9.36;59.91;97947.22;6931207;28;20228;-80
2022/02/06 16:05:11;;;;;;;1.27;1.27;;;;;;;9.72;59.47;97943.81;6928054;28;20212;-81
2022/02/06 16:08:33;;;;;;;1.90;1.40;;;;;;;10.24;58.17;97928.00;6941033;28;20262;-93
2022/02/06 16:11:57;;;;;;;1.20;1.20;;;;;;;9.41;57.57;97857.78;6951316;28;20281;-93
2022/02/06 16:15:36;;;;;;;1.60;1.60;;;;;;;9.14;58.28;97824.06;6963944;28;20203;-91
2022/02/06 16:19:05;;;;;;;2.03;1.50;;;;;;;8.72;58.60;97756.84;6967437;28;20251;-96
2022/02/06 16:22:30;;;;;;;1.20;1.20;;;;;;;8.78;58.49;97740.66;6965206;28;20237;-91
2022/02/06 16:25:52;;;;;;;1.50;1.50;;;;;;;8.92;56.68;97684.91;6959359;28;20203;-92
2022/02/06 16:29:17;;;;;;;3.20;1.90;;;;;;;9.77;58.43;97904.44;6961456;28;20217;-93
2022/02/06 16:32:46;;;;;;;1.30;1.30;;;;;;;8.23;59.21;97703.88;6961785;28;20184;-94
2022/02/06 16:36:15;;;;;;;1.30;1.20;;;;;;;8.46;60.70;97818.78;6932105;28;20219;-92
2022/02/06 16:39:40;;;;;;;1.53;1.50;;;;;;;9.62;58.08;97862.78;6929842;28;20232;-88
2022/02/06 16:43:04;;;;;;;2.23;1.60;;;;;;;9.65;59.45;97891.91;6929993;28;20222;-87
2022/02/06 16:46:27;;;;;;;1.50;1.43;;;;;;;8.94;59.23;97775.03;6939109;28;20242;-81
2022/02/06 16:49:51;;;;;;;1.27;1.27;;;;;;;9.13;58.36;97755.22;6955284;28;20250;-86
2022/02/06 16:53:13;;;;;;;1.63;1.53;;;;;;;8.66;58.15;97653.72;6978916;28;20288;-80
2022/02/06 16:56:34;;;;;;;1.80;1.70;;;;;;;9.21;58.06;97703.84;6981562;28;20679;-80
2022/02/06 16:59:56;;;;;;;2.30;1.40;;;;;;;10.41;56.74;97844.69;6963965;28;20586;-81
2022/02/06 17:03:19;;;;;;;1.30;1.30;;;;;;;9.63;57.71;97764.84;6925678;28;20227;-78
2022/02/06 17:06:41;;;;;;;1.20;1.20;;;;;;;9.46;57.63;97750.34;6925869;28;20215;-78
2022/02/06 17:10:03;;;;;;;1.30;1.30;;;;;;;10.22;57.63;97848.47;6927008;28;20207;-80
2022/02/06 17:13:25;;;;;;;1.57;1.47;;;;;;;9.36;57.50;97768.84;6928142;28;20223;-79
2022/02/06 17:16:47;;;;;;;2.10;1.60;;;;;;;9.58;58.00;97780.84;6941460;28;20211;-81
2022/02/06 17:20:13;;;;;;;1.37;1.37;;;;;;;8.99;57.37;97655.03;6937082;28;20224;-83
2022/02/06 17:23:35;;;;;;;1.30;1.30;;;;;;;9.95;56.99;97796.75;6925948;28;20223;-85
2022/02/06 17:26:59;;;;;;;1.30;1.30;;;;;;;9.83;58.60;97824.66;6944218;28;20230;-86
2022/02/06 17:30:26;;;;;;;1.30;1.30;;;;;;;9.51;58.66;97763.94;6961694;28;20319;-77
2022/02/06 17:33:48;;;;;;;1.47;1.40;;;;;;;9.79;58.71;97804.59;6958649;28;20199;-76
2022/02/06 17:37:11;;;;;;;1.80;1.70;;;;;;;9.98;58.37;97804.38;6952490;28;20228;-76
2022/02/06 17:40:33;;;;;;;1.90;1.80;;;;;;;10.16;57.92;97801.69;6952753;28;20218;-76
2022/02/06 17:43:54;;;;;;;1.33;1.33;;;;;;;10.14;57.87;97771.47;6952757;28;20250;-77
2022/02/06 17:47:17;;;;;;;1.57;1.57;;;;;;;9.64;58.38;97688.44;6951522;28;20210;-77
2022/02/06 17:50:39;;;;;;;1.27;1.27;;;;;;;10.19;57.39;97762.72;6963304;28;20587;-77
2022/02/06 17:54:02;;;;;;;1.50;1.50;;;;;;;10.16;58.40;97758.59;6934290;28;20222;-78
2022/02/06 17:57:25;;;;;;;2.60;1.40;;;;;;;10.16;58.13;97753.22;6951964;28;20203;-78
2022/02/06 18:00:48;;;;;;;1.70;1.60;;;;;;;9.77;57.00;97648.72;6955945;28;20214;-78
2022/02/06 18:04:10;;;;;;;1.20;1.20;;;;;;;9.55;57.75;97658.34;6956255;28;20362;-77
2022/02/06 18:07:31;;;;;;;2.70;2.50;;;;;;;10.31;57.30;97723.16;6939969;28;20230;-77
2022/02/06 18:10:55;;;;;;;1.27;1.27;;;;;;;10.35;57.62;97760.22;6944546;28;20207;-77
2022/02/06 18:14:16;;;;;;;1.40;1.40;;;;;;;10.51;56.83;97747.97;6943649;28;20801;-79
2022/02/06 18:17:38;;;;;;;5.00;3.23;;;;;;;9.95;57.57;97675.59;6948551;28;20227;-78
2022/02/06 18:20:59;;;;;;;4.20;2.90;;;;;;;10.69;56.55;97739.81;6953264;28;20205;-77
2022/02/06 18:24:21;;;;;;;5.57;4.23;;;;;;;9.70;57.44;97607.59;6977179;28;20226;-78
2022/02/06 18:27:46;;;;;;;2.93;2.33;;;;;;;10.35;57.08;97668.63;6981081;28;20687;-78
2022/02/06 18:31:07;;;;;;;5.70;4.23;;;;;;;9.72;57.71;97656.66;6981017;28;20690;-79
2022/02/06 18:34:29;;;;;;;1.80;1.70;;;;;;;9.72;57.89;97642.38;6953971;28;20223;-78
2022/02/06 18:37:51;;;;;;;1.80;1.70;;;;;;;9.74;57.76;97613.38;6953676;28;20691;-77
2022/02/06 18:41:13;;;;;;;1.60;1.50;;;;;;;10.17;58.30;97710.97;6955287;28;20322;-79
2022/02/06 18:44:45;;;;;;;1.40;1.40;;;;;;;10.04;58.84;97687.72;6937793;28;20231;-77
2022/02/06 18:48:07;;;;;;;1.73;1.63;;;;;;;9.85;57.81;97626.03;6939618;28;20578;-78
2022/02/06 18:51:29;;;;;;;1.50;1.50;;;;;;;9.64;58.86;97602.34;6934342;28;20570;-78
2022/02/06 18:54:51;;;;;;;1.93;1.83;;;;;;;9.92;58.14;97576.44;6938603;28;20244;-79
2022/02/06 18:58:17;;;;;;;1.47;1.47;;;;;;;9.36;57.65;97471.13;6949379;28;20738;-79
2022/02/06 19:01:40;;;;;;;2.00;1.90;;;;;;;10.38;58.35;97675.41;6950537;28;20227;-78
2022/02/06 19:05:03;;;;;;;1.83;1.73;;;;;;;9.26;59.76;97564.16;6922854;28;20203;-78
2022/02/06 19:08:29;;;;;;;1.53;1.47;;;;;;;9.71;59.07;97600.38;6925960;28;20590;-79
2022/02/06 19:11:52;;;;;;;2.53;2.03;;;;;;;10.27;59.22;97687.00;6923708;28;20208;-78
2022/02/06 19:15:15;;;;;;;1.47;1.47;;;;;;;10.04;59.49;97674.25;6959942;28;20203;-78
2022/02/06 19:18:38;;;;;;;1.90;1.80;;;;;;;10.27;58.79;97644.69;6946804;28;20384;-79
2022/02/06 19:21:59;;;;;;;1.30;1.30;;;;;;;10.25;59.13;97637.88;6944331;28;20214;-79
2022/02/06 19:25:21;;;;;;;2.67;2.10;;;;;;;10.04;58.43;97544.19;6950026;28;20211;-80
2022/02/06 19:28:43;;;;;;;2.90;1.70;;;;;;;9.88;58.99;97582.53;6954970;28;20198;-79
2022/02/06 19:32:05;;;;;;;1.50;1.40;;;;;;;10.05;58.17;97568.19;6948645;28;20253;-79
2022/02/06 19:35:32;;;;;;;1.70;1.60;;;;;;;9.79;58.30;97512.03;6951463;28;20223;-80
2022/02/06 19:38:55;;;;;;;1.80;1.70;;;;;;;10.34;59.00;97598.81;6930662;28;20258;-79
2022/02/06 19:42:19;;;;;;;2.07;1.93;;;;;;;10.22;59.00;97612.25;6938014;28;20236;-78
2022/02/06 19:45:41;;;;;;;1.70;1.60;;;;;;;9.80;58.75;97567.50;6943509;28;20200;-79
2022/02/06 19:49:06;;;;;;;2.00;1.80;;;;;;;10.61;58.42;97648.47;6945384;28;20688;-79
2022/02/06 19:52:29;;;;;;;2.10;2.00;;;;;;;10.53;59.18;97687.41;6942672;28;20199;-79
2022/02/06 19:55:52;;;;;;;1.93;1.70;;;;;;;10.82;58.62;97735.03;6943242;28;20214;-79
2022/02/06 19:59:13;;;;;;;1.50;1.40;;;;;;;10.40;58.49;97654.44;6939898;28;20563;-79
2022/02/06 20:02:35;;;;;;;2.53;2.43;;;;;;;9.93;60.03;97642.69;6940704;28;20237;-78
2022/02/06 20:05:58;;;;;;;2.43;1.70;;;;;;;9.77;61.56;97685.59;6946520;28;20672;-78
2022/02/06 20:09:22;;;;;;;1.90;1.80;;;;;;;9.25;63.25;97665.53;6954847;28;20230;-79
2022/02/06 20:12:47;;;;;;;1.90;1.80;;;;;;;10.01;63.17;97720.47;6954084;28;20715;-79
2022/02/06 20:16:12;;;;;;;2.13;1.80;;;;;;;9.79;63.79;97719.31;6945560;28;20247;-79
2022/02/06 20:19:36;;;;;;;2.10;1.83;;;;;;;9.56;62.84;97594.59;6955443;28;20214;-79
2022/02/06 20:22:58;;;;;;;2.93;2.10;;;;;;;10.28;62.14;97642.84;6954418;28;20570;-79
2022/02/06 20:26:22;;;;;;;2.80;2.00;;;;;;;10.36;61.86;97639.78;6953953;28;20218;-79
2022/02/06 20:29:45;;;;;;;6.23;5.60;;;;;;;10.60;61.43;97669.25;6954251;28;20277;-77
2022/02/06 20:33:06;;;;;;;5.47;3.80;;;;;;;9.99;61.27;97574.47;6954537;28;20207;-79
2022/02/06 20:36:28;;;;;;;5.03;3.20;;;;;;;11.11;60.82;97663.16;6954154;28;20716;-78
2022/02/06 20:39:50;;;;;;;3.03;2.73;;;;;;;10.16;61.99;97629.31;6954296;28;20211;-79
2022/02/06 20:43:13;;;;;;;3.60;3.00;;;;;;;10.66;61.92;97651.31;6953691;28;20578;-79
2022/02/06 20:46:38;;;;;;;2.83;2.53;;;;;;;10.05;61.98;97549.34;6954042;28;20231;-80
2022/02/06 20:50:02;;;;;;;6.60;5.70;;;;;;;10.68;62.73;97644.63;6941040;28;20244;-77
2022/02/06 20:53:24;;;;;;;2.50;2.30;;;;;;;9.95;64.53;97662.16;6933585;28;20671;-79
2022/02/06 20:56:45;;;;;;;2.60;2.40;;;;;;;9.90;63.17;97599.25;6939163;28;20661;-77
2022/02/06 21:00:12;;;;;;;7.23;6.53;;;;;;;10.49;63.48;97686.22;6934144;28;20592;-79
2022/02/06 21:03:33;;;;;;;3.43;3.13;;;;;;;10.18;63.97;97685.66;6950407;28;20226;-79
2022/02/06 21:06:55;;;;;;;2.07;1.50;;;;;;;8.73;63.24;97691.31;6935747;28;20211;-78
2022/02/06 21:10:22;;;;;;;1.87;1.80;;;;;;;7.47;65.00;97596.78;6927560;28;20222;-78
2022/02/06 21:13:44;;;;;;;2.27;1.60;;;;;;;7.19;66.88;97663.34;6953560;28;20351;-78
2022/02/06 21:17:07;;;;;;;2.07;1.97;;;;;;;7.81;65.29;97685.75;6953304;28;20211;-79
2022/02/06 21:20:29;;;;;;;2.20;2.10;;;;;;;7.97;62.54;97663.78;6953492;28;20704;-79
2022/02/06 21:23:52;;;;;;;2.70;2.10;;;;;;;8.25;62.08;97645.41;6952932;28;20233;-78
2022/02/06 21:27:13;;;;;;;2.07;1.80;;;;;;;8.39;61.25;97632.72;6952745;28;20264;-78
2022/02/06 21:30:35;;;;;;;2.80;2.60;;;;;;;8.21;62.40;97659.50;6953101;28;20210;-78
2022/02/06 21:34:00;;;;;;;2.77;2.03;;;;;;;8.93;60.95;97660.50;6952284;28;20226;-78
2022/02/06 21:37:23;;;;;;;4.80;4.40;;;;;;;8.11;62.05;97586.66;6952487;28;20233;-78
2022/02/06 21:40:45;;;;;;;2.77;2.13;;;;;;;8.06;62.01;97557.78;6952110;28;20211;-78
2022/02/06 21:44:06;;;;;;;2.90;2.67;;;;;;;8.97;60.91;97644.75;6952180;28;20698;-78